Terminal Aerodrome Forecast
Issued by NWS Cleveland, OH

Home | Current Version | Previous Version | Graphics & Text | Print | Product List | Glossary On
Versions: 1 2 3 4 5 6 7 8 9 10 11 12 13 14 15 16 17 18
000
FTUS41 KCLE 251120
TAFMFD
TAF
KMFD 251120Z 2512/2612 21006KT P6SM SCT040 BKN250
      TEMPO 2513/2515 6SM -SHRA BKN040
     FM251800 22010KT P6SM BKN045
     FM252200 25012KT P6SM VCSH BKN045
      TEMPO 2522/2602 4SM TSRA BR OVC025CB
     FM260200 24008KT 5SM BR SCT025 BKN080
     FM260800 30005KT 4SM BR SCT250=

USA.gov is the U.S. government's official web portal to all federal, state and local government web resources and services.